sensor_id;sensor_type;location;lat;lon;timestamp;P1;durP1;ratioP1;P2;durP2;ratioP2
64387;SDS011;50709;52.648;4.764;2023-02-08T00:00:52;21.30;;;13.05;;
64387;SDS011;50709;52.648;4.764;2023-02-08T00:03:17;21.20;;;11.85;;
64387;SDS011;50709;52.648;4.764;2023-02-08T00:05:43;20.38;;;12.23;;
64387;SDS011;50709;52.648;4.764;2023-02-08T00:08:08;22.17;;;12.50;;
64387;SDS011;50709;52.648;4.764;2023-02-08T00:10:34;21.60;;;11.70;;
64387;SDS011;50709;52.648;4.764;2023-02-08T00:12:59;22.90;;;12.85;;
64387;SDS011;50709;52.648;4.764;2023-02-08T00:15:25;20.08;;;12.05;;
64387;SDS011;50709;52.648;4.764;2023-02-08T00:17:50;19.88;;;10.43;;
64387;SDS011;50709;52.648;4.764;2023-02-08T00:20:16;22.95;;;11.68;;
64387;SDS011;50709;52.648;4.764;2023-02-08T00:22:42;22.33;;;11.23;;
64387;SDS011;50709;52.648;4.764;2023-02-08T00:25:07;21.52;;;11.85;;
64387;SDS011;50709;52.648;4.764;2023-02-08T00:27:33;20.83;;;11.85;;
64387;SDS011;50709;52.648;4.764;2023-02-08T00:29:59;20.30;;;10.73;;
64387;SDS011;50709;52.648;4.764;2023-02-08T00:32:24;21.50;;;12.52;;
64387;SDS011;50709;52.648;4.764;2023-02-08T00:34:50;20.02;;;11.25;;
64387;SDS011;50709;52.648;4.764;2023-02-08T00:37:15;22.60;;;11.30;;
64387;SDS011;50709;52.648;4.764;2023-02-08T00:39:40;19.00;;;11.23;;
64387;SDS011;50709;52.648;4.764;2023-02-08T00:42:06;19.27;;;10.43;;
64387;SDS011;50709;52.648;4.764;2023-02-08T00:44:31;17.52;;;10.55;;
64387;SDS011;50709;52.648;4.764;2023-02-08T00:46:57;20.63;;;10.48;;
64387;SDS011;50709;52.648;4.764;2023-02-08T00:49:22;18.95;;;10.73;;
64387;SDS011;50709;52.648;4.764;2023-02-08T00:51:47;20.65;;;10.85;;
64387;SDS011;50709;52.648;4.764;2023-02-08T00:54:16;22.50;;;11.70;;
64387;SDS011;50709;52.648;4.764;2023-02-08T00:56:43;20.13;;;10.77;;
64387;SDS011;50709;52.648;4.764;2023-02-08T00:59:09;22.38;;;11.57;;
64387;SDS011;50709;52.648;4.764;2023-02-08T01:01:34;19.25;;;11.45;;
64387;SDS011;50709;52.648;4.764;2023-02-08T01:04:00;21.23;;;11.40;;
64387;SDS011;50709;52.648;4.764;2023-02-08T01:06:26;20.35;;;11.45;;
64387;SDS011;50709;52.648;4.764;2023-02-08T01:08:51;18.58;;;10.35;;
64387;SDS011;50709;52.648;4.764;2023-02-08T01:11:18;19.20;;;10.90;;
64387;SDS011;50709;52.648;4.764;2023-02-08T01:13:46;20.15;;;10.93;;
64387;SDS011;50709;52.648;4.764;2023-02-08T01:16:14;20.63;;;11.55;;
64387;SDS011;50709;52.648;4.764;2023-02-08T01:18:43;20.92;;;11.27;;
64387;SDS011;50709;52.648;4.764;2023-02-08T01:21:11;20.50;;;11.38;;
64387;SDS011;50709;52.648;4.764;2023-02-08T01:23:38;18.90;;;10.93;;
64387;SDS011;50709;52.648;4.764;2023-02-08T01:26:05;24.38;;;11.65;;
64387;SDS011;50709;52.648;4.764;2023-02-08T01:28:31;25.08;;;10.93;;
64387;SDS011;50709;52.648;4.764;2023-02-08T01:30:57;21.58;;;11.40;;
64387;SDS011;50709;52.648;4.764;2023-02-08T01:33:23;20.90;;;11.57;;
64387;SDS011;50709;52.648;4.764;2023-02-08T01:35:52;21.23;;;11.52;;
64387;SDS011;50709;52.648;4.764;2023-02-08T01:38:18;17.48;;;10.50;;
64387;SDS011;50709;52.648;4.764;2023-02-08T01:40:44;20.52;;;10.88;;
64387;SDS011;50709;52.648;4.764;2023-02-08T01:43:15;20.10;;;11.27;;
64387;SDS011;50709;52.648;4.764;2023-02-08T01:45:45;18.02;;;10.73;;
64387;SDS011;50709;52.648;4.764;2023-02-08T01:48:12;22.05;;;11.77;;
64387;SDS011;50709;52.648;4.764;2023-02-08T01:50:51;18.85;;;11.02;;
64387;SDS011;50709;52.648;4.764;2023-02-08T01:53:22;21.77;;;11.65;;
64387;SDS011;50709;52.648;4.764;2023-02-08T01:55:51;19.85;;;11.00;;
64387;SDS011;50709;52.648;4.764;2023-02-08T01:58:20;20.05;;;11.63;;
64387;SDS011;50709;52.648;4.764;2023-02-08T02:00:48;20.77;;;11.13;;
64387;SDS011;50709;52.648;4.764;2023-02-08T02:03:13;20.17;;;11.38;;
64387;SDS011;50709;52.648;4.764;2023-02-08T02:05:44;20.55;;;11.25;;
64387;SDS011;50709;52.648;4.764;2023-02-08T02:08:13;18.15;;;11.32;;
64387;SDS011;50709;52.648;4.764;2023-02-08T02:10:39;21.38;;;11.60;;
64387;SDS011;50709;52.648;4.764;2023-02-08T02:13:11;21.63;;;12.30;;
64387;SDS011;50709;52.648;4.764;2023-02-08T02:15:44;18.83;;;11.32;;
64387;SDS011;50709;52.648;4.764;2023-02-08T02:18:10;21.27;;;11.82;;
64387;SDS011;50709;52.648;4.764;2023-02-08T02:31:54;19.08;;;10.77;;
64387;SDS011;50709;52.648;4.764;2023-02-08T02:46:02;18.73;;;10.98;;
64387;SDS011;50709;52.648;4.764;2023-02-08T02:51:35;21.25;;;12.05;;
64387;SDS011;50709;52.648;4.764;2023-02-08T02:54:08;20.83;;;10.77;;
64387;SDS011;50709;52.648;4.764;2023-02-08T02:56:42;20.05;;;10.93;;
64387;SDS011;50709;52.648;4.764;2023-02-08T02:59:10;20.85;;;11.05;;
64387;SDS011;50709;52.648;4.764;2023-02-08T03:01:37;23.70;;;11.68;;
64387;SDS011;50709;52.648;4.764;2023-02-08T03:04:14;18.27;;;10.93;;
64387;SDS011;50709;52.648;4.764;2023-02-08T03:12:16;22.58;;;11.52;;
64387;SDS011;50709;52.648;4.764;2023-02-08T03:14:57;22.00;;;11.80;;
64387;SDS011;50709;52.648;4.764;2023-02-08T03:20:14;18.98;;;10.60;;
64387;SDS011;50709;52.648;4.764;2023-02-08T03:25:18;22.13;;;12.40;;
64387;SDS011;50709;52.648;4.764;2023-02-08T03:30:16;22.83;;;11.80;;
64387;SDS011;50709;52.648;4.764;2023-02-08T03:32:59;19.98;;;11.88;;
64387;SDS011;50709;52.648;4.764;2023-02-08T03:35:41;22.13;;;12.48;;
64387;SDS011;50709;52.648;4.764;2023-02-08T03:38:20;20.40;;;11.43;;
64387;SDS011;50709;52.648;4.764;2023-02-08T03:40:51;20.50;;;11.20;;
64387;SDS011;50709;52.648;4.764;2023-02-08T03:43:27;20.63;;;11.13;;
64387;SDS011;50709;52.648;4.764;2023-02-08T03:45:58;19.27;;;11.45;;
64387;SDS011;50709;52.648;4.764;2023-02-08T03:48:30;20.30;;;11.52;;
64387;SDS011;50709;52.648;4.764;2023-02-08T03:50:58;22.17;;;12.45;;
64387;SDS011;50709;52.648;4.764;2023-02-08T03:53:25;17.52;;;11.15;;
64387;SDS011;50709;52.648;4.764;2023-02-08T03:55:57;21.90;;;12.38;;
64387;SDS011;50709;52.648;4.764;2023-02-08T03:58:30;19.13;;;10.88;;
64387;SDS011;50709;52.648;4.764;2023-02-08T04:01:19;20.90;;;11.82;;
64387;SDS011;50709;52.648;4.764;2023-02-08T04:03:49;21.48;;;12.15;;
64387;SDS011;50709;52.648;4.764;2023-02-08T04:06:18;18.38;;;11.98;;
64387;SDS011;50709;52.648;4.764;2023-02-08T04:08:44;20.77;;;12.55;;
64387;SDS011;50709;52.648;4.764;2023-02-08T04:11:09;16.90;;;11.23;;
64387;SDS011;50709;52.648;4.764;2023-02-08T04:13:35;21.35;;;11.40;;
64387;SDS011;50709;52.648;4.764;2023-02-08T04:16:00;22.90;;;11.43;;
64387;SDS011;50709;52.648;4.764;2023-02-08T04:18:26;22.42;;;12.57;;
64387;SDS011;50709;52.648;4.764;2023-02-08T04:20:51;20.75;;;12.68;;
64387;SDS011;50709;52.648;4.764;2023-02-08T04:23:16;22.27;;;11.43;;
64387;SDS011;50709;52.648;4.764;2023-02-08T04:25:42;21.00;;;10.85;;
64387;SDS011;50709;52.648;4.764;2023-02-08T04:28:07;21.15;;;11.88;;
64387;SDS011;50709;52.648;4.764;2023-02-08T04:30:33;24.00;;;12.25;;
64387;SDS011;50709;52.648;4.764;2023-02-08T04:32:58;23.80;;;12.40;;
64387;SDS011;50709;52.648;4.764;2023-02-08T04:35:24;20.95;;;11.18;;
64387;SDS011;50709;52.648;4.764;2023-02-08T04:37:49;20.08;;;12.40;;
64387;SDS011;50709;52.648;4.764;2023-02-08T04:40:15;22.55;;;11.77;;
64387;SDS011;50709;52.648;4.764;2023-02-08T04:42:40;20.75;;;12.13;;
64387;SDS011;50709;52.648;4.764;2023-02-08T04:45:06;21.50;;;12.63;;
64387;SDS011;50709;52.648;4.764;2023-02-08T04:47:32;21.95;;;11.57;;
64387;SDS011;50709;52.648;4.764;2023-02-08T04:49:57;20.52;;;11.90;;
64387;SDS011;50709;52.648;4.764;2023-02-08T04:52:22;21.75;;;11.70;;
64387;SDS011;50709;52.648;4.764;2023-02-08T04:54:48;19.88;;;12.60;;
64387;SDS011;50709;52.648;4.764;2023-02-08T04:57:14;20.42;;;12.25;;
64387;SDS011;50709;52.648;4.764;2023-02-08T04:59:39;20.25;;;11.50;;
64387;SDS011;50709;52.648;4.764;2023-02-08T05:02:05;21.13;;;12.65;;
64387;SDS011;50709;52.648;4.764;2023-02-08T05:04:31;22.30;;;12.10;;
64387;SDS011;50709;52.648;4.764;2023-02-08T05:06:57;20.98;;;12.07;;
64387;SDS011;50709;52.648;4.764;2023-02-08T05:09:22;20.77;;;12.07;;
64387;SDS011;50709;52.648;4.764;2023-02-08T05:11:48;19.83;;;12.25;;
64387;SDS011;50709;52.648;4.764;2023-02-08T05:14:13;22.20;;;13.85;;
64387;SDS011;50709;52.648;4.764;2023-02-08T05:16:39;21.52;;;13.02;;
64387;SDS011;50709;52.648;4.764;2023-02-08T05:19:04;23.50;;;13.32;;
64387;SDS011;50709;52.648;4.764;2023-02-08T05:21:29;20.25;;;12.57;;
64387;SDS011;50709;52.648;4.764;2023-02-08T05:23:55;22.98;;;13.77;;
64387;SDS011;50709;52.648;4.764;2023-02-08T05:26:20;20.90;;;12.80;;
64387;SDS011;50709;52.648;4.764;2023-02-08T05:28:45;25.08;;;14.63;;
64387;SDS011;50709;52.648;4.764;2023-02-08T05:31:13;21.90;;;13.00;;
64387;SDS011;50709;52.648;4.764;2023-02-08T05:33:43;20.88;;;12.75;;
64387;SDS011;50709;52.648;4.764;2023-02-08T05:36:09;22.50;;;12.98;;
64387;SDS011;50709;52.648;4.764;2023-02-08T05:38:34;19.45;;;12.07;;
64387;SDS011;50709;52.648;4.764;2023-02-08T05:41:00;19.33;;;12.35;;
64387;SDS011;50709;52.648;4.764;2023-02-08T05:43:25;22.17;;;11.80;;
64387;SDS011;50709;52.648;4.764;2023-02-08T05:45:51;22.33;;;12.30;;
64387;SDS011;50709;52.648;4.764;2023-02-08T05:48:16;19.50;;;12.18;;
64387;SDS011;50709;52.648;4.764;2023-02-08T05:50:42;21.25;;;12.48;;
64387;SDS011;50709;52.648;4.764;2023-02-08T05:53:07;19.58;;;12.50;;
64387;SDS011;50709;52.648;4.764;2023-02-08T05:55:33;18.92;;;11.90;;
64387;SDS011;50709;52.648;4.764;2023-02-08T05:57:58;20.15;;;12.70;;
64387;SDS011;50709;52.648;4.764;2023-02-08T06:00:24;20.90;;;13.57;;
64387;SDS011;50709;52.648;4.764;2023-02-08T06:02:49;19.17;;;12.27;;
64387;SDS011;50709;52.648;4.764;2023-02-08T06:05:14;20.38;;;13.02;;
64387;SDS011;50709;52.648;4.764;2023-02-08T06:07:40;19.70;;;13.75;;
64387;SDS011;50709;52.648;4.764;2023-02-08T06:10:05;18.67;;;12.70;;
64387;SDS011;50709;52.648;4.764;2023-02-08T06:12:31;20.20;;;12.52;;
64387;SDS011;50709;52.648;4.764;2023-02-08T06:14:56;22.02;;;13.00;;
64387;SDS011;50709;52.648;4.764;2023-02-08T06:17:21;20.20;;;12.65;;
64387;SDS011;50709;52.648;4.764;2023-02-08T06:19:47;20.25;;;13.27;;
64387;SDS011;50709;52.648;4.764;2023-02-08T06:22:12;20.60;;;12.35;;
64387;SDS011;50709;52.648;4.764;2023-02-08T06:24:37;19.23;;;12.13;;
64387;SDS011;50709;52.648;4.764;2023-02-08T06:27:03;18.20;;;11.93;;
64387;SDS011;50709;52.648;4.764;2023-02-08T06:29:28;19.45;;;12.77;;
64387;SDS011;50709;52.648;4.764;2023-02-08T06:31:54;19.55;;;11.95;;
64387;SDS011;50709;52.648;4.764;2023-02-08T06:34:19;17.30;;;11.80;;
64387;SDS011;50709;52.648;4.764;2023-02-08T06:36:44;17.73;;;12.50;;
64387;SDS011;50709;52.648;4.764;2023-02-08T06:39:10;19.95;;;12.35;;
64387;SDS011;50709;52.648;4.764;2023-02-08T06:41:35;19.92;;;11.38;;
64387;SDS011;50709;52.648;4.764;2023-02-08T06:44:01;19.40;;;11.55;;
64387;SDS011;50709;52.648;4.764;2023-02-08T06:46:26;16.80;;;11.23;;
64387;SDS011;50709;52.648;4.764;2023-02-08T06:48:52;17.83;;;11.70;;
64387;SDS011;50709;52.648;4.764;2023-02-08T06:51:17;19.35;;;12.00;;
64387;SDS011;50709;52.648;4.764;2023-02-08T06:53:43;18.27;;;10.82;;
64387;SDS011;50709;52.648;4.764;2023-02-08T06:56:08;15.43;;;11.20;;
64387;SDS011;50709;52.648;4.764;2023-02-08T06:58:33;15.18;;;9.90;;
64387;SDS011;50709;52.648;4.764;2023-02-08T07:00:59;14.95;;;10.05;;
64387;SDS011;50709;52.648;4.764;2023-02-08T07:03:24;15.95;;;11.00;;
64387;SDS011;50709;52.648;4.764;2023-02-08T07:05:49;16.08;;;11.30;;
64387;SDS011;50709;52.648;4.764;2023-02-08T07:08:15;15.43;;;11.35;;
64387;SDS011;50709;52.648;4.764;2023-02-08T07:10:40;15.75;;;11.10;;
64387;SDS011;50709;52.648;4.764;2023-02-08T07:13:05;13.95;;;10.30;;
64387;SDS011;50709;52.648;4.764;2023-02-08T07:15:31;17.77;;;11.52;;
64387;SDS011;50709;52.648;4.764;2023-02-08T07:17:57;14.32;;;10.88;;
64387;SDS011;50709;52.648;4.764;2023-02-08T07:20:23;14.98;;;11.10;;
64387;SDS011;50709;52.648;4.764;2023-02-08T07:22:48;17.38;;;10.70;;
64387;SDS011;50709;52.648;4.764;2023-02-08T07:25:13;16.67;;;12.02;;
64387;SDS011;50709;52.648;4.764;2023-02-08T07:27:39;19.13;;;12.50;;
64387;SDS011;50709;52.648;4.764;2023-02-08T07:30:04;15.25;;;10.77;;
64387;SDS011;50709;52.648;4.764;2023-02-08T07:32:32;14.85;;;10.13;;
64387;SDS011;50709;52.648;4.764;2023-02-08T07:34:57;15.23;;;10.88;;
64387;SDS011;50709;52.648;4.764;2023-02-08T07:37:24;16.55;;;11.40;;
64387;SDS011;50709;52.648;4.764;2023-02-08T07:39:50;16.13;;;10.85;;
64387;SDS011;50709;52.648;4.764;2023-02-08T07:42:15;14.82;;;10.57;;
64387;SDS011;50709;52.648;4.764;2023-02-08T07:44:40;15.27;;;10.55;;
64387;SDS011;50709;52.648;4.764;2023-02-08T07:47:06;15.52;;;10.23;;
64387;SDS011;50709;52.648;4.764;2023-02-08T07:49:33;17.33;;;12.50;;
64387;SDS011;50709;52.648;4.764;2023-02-08T07:51:59;13.13;;;9.60;;
64387;SDS011;50709;52.648;4.764;2023-02-08T07:54:25;16.33;;;10.40;;
64387;SDS011;50709;52.648;4.764;2023-02-08T07:56:51;22.25;;;12.75;;
64387;SDS011;50709;52.648;4.764;2023-02-08T07:59:17;19.52;;;12.15;;
64387;SDS011;50709;52.648;4.764;2023-02-08T08:01:42;16.95;;;11.38;;
64387;SDS011;50709;52.648;4.764;2023-02-08T08:04:08;17.95;;;12.27;;
64387;SDS011;50709;52.648;4.764;2023-02-08T08:06:33;19.88;;;14.10;;
64387;SDS011;50709;52.648;4.764;2023-02-08T08:08:59;15.35;;;10.80;;
64387;SDS011;50709;52.648;4.764;2023-02-08T08:11:24;17.67;;;12.02;;
64387;SDS011;50709;52.648;4.764;2023-02-08T08:13:50;17.15;;;10.10;;
64387;SDS011;50709;52.648;4.764;2023-02-08T08:16:16;17.65;;;12.02;;
64387;SDS011;50709;52.648;4.764;2023-02-08T08:18:42;21.23;;;15.52;;
64387;SDS011;50709;52.648;4.764;2023-02-08T08:21:07;20.98;;;13.48;;
64387;SDS011;50709;52.648;4.764;2023-02-08T08:23:33;15.10;;;10.82;;
64387;SDS011;50709;52.648;4.764;2023-02-08T08:26:04;19.25;;;10.90;;
64387;SDS011;50709;52.648;4.764;2023-02-08T08:28:41;18.20;;;14.07;;
64387;SDS011;50709;52.648;4.764;2023-02-08T08:31:08;10.15;;;6.82;;
64387;SDS011;50709;52.648;4.764;2023-02-08T08:33:38;20.80;;;15.85;;
64387;SDS011;50709;52.648;4.764;2023-02-08T08:36:04;12.80;;;9.60;;
64387;SDS011;50709;52.648;4.764;2023-02-08T08:38:29;16.42;;;11.90;;
64387;SDS011;50709;52.648;4.764;2023-02-08T08:40:55;15.23;;;10.75;;
64387;SDS011;50709;52.648;4.764;2023-02-08T08:43:20;18.20;;;11.27;;
64387;SDS011;50709;52.648;4.764;2023-02-08T08:45:46;21.23;;;13.80;;
64387;SDS011;50709;52.648;4.764;2023-02-08T08:48:11;15.55;;;11.68;;
64387;SDS011;50709;52.648;4.764;2023-02-08T08:50:36;20.13;;;13.05;;
64387;SDS011;50709;52.648;4.764;2023-02-08T08:53:02;16.80;;;11.00;;
64387;SDS011;50709;52.648;4.764;2023-02-08T08:55:28;17.63;;;11.65;;
64387;SDS011;50709;52.648;4.764;2023-02-08T08:57:53;19.88;;;14.98;;
64387;SDS011;50709;52.648;4.764;2023-02-08T09:00:19;20.60;;;11.50;;
64387;SDS011;50709;52.648;4.764;2023-02-08T09:02:45;17.88;;;12.20;;
64387;SDS011;50709;52.648;4.764;2023-02-08T09:05:10;17.83;;;11.95;;
64387;SDS011;50709;52.648;4.764;2023-02-08T09:07:36;21.20;;;15.02;;
64387;SDS011;50709;52.648;4.764;2023-02-08T09:10:02;8.00;;;4.78;;
64387;SDS011;50709;52.648;4.764;2023-02-08T09:12:27;15.40;;;10.10;;
64387;SDS011;50709;52.648;4.764;2023-02-08T09:14:53;19.90;;;12.60;;
64387;SDS011;50709;52.648;4.764;2023-02-08T09:17:19;17.02;;;10.77;;
64387;SDS011;50709;52.648;4.764;2023-02-08T09:19:44;19.42;;;12.60;;
64387;SDS011;50709;52.648;4.764;2023-02-08T09:22:11;17.55;;;12.13;;
64387;SDS011;50709;52.648;4.764;2023-02-08T09:24:37;17.85;;;12.50;;
64387;SDS011;50709;52.648;4.764;2023-02-08T09:27:04;21.00;;;13.32;;
64387;SDS011;50709;52.648;4.764;2023-02-08T09:29:29;23.52;;;16.45;;
64387;SDS011;50709;52.648;4.764;2023-02-08T09:31:56;19.95;;;13.80;;
64387;SDS011;50709;52.648;4.764;2023-02-08T09:34:22;18.92;;;11.60;;
64387;SDS011;50709;52.648;4.764;2023-02-08T09:36:47;17.20;;;11.50;;
64387;SDS011;50709;52.648;4.764;2023-02-08T09:39:14;20.20;;;13.20;;
64387;SDS011;50709;52.648;4.764;2023-02-08T09:44:50;18.25;;;11.85;;
64387;SDS011;50709;52.648;4.764;2023-02-08T09:47:37;18.92;;;11.43;;
64387;SDS011;50709;52.648;4.764;2023-02-08T09:50:37;17.02;;;11.15;;
64387;SDS011;50709;52.648;4.764;2023-02-08T09:53:22;19.55;;;10.90;;
64387;SDS011;50709;52.648;4.764;2023-02-08T09:55:55;19.85;;;12.30;;
64387;SDS011;50709;52.648;4.764;2023-02-08T09:58:27;16.85;;;11.23;;
64387;SDS011;50709;52.648;4.764;2023-02-08T10:00:59;16.33;;;11.27;;
64387;SDS011;50709;52.648;4.764;2023-02-08T10:06:00;18.52;;;11.57;;
64387;SDS011;50709;52.648;4.764;2023-02-08T10:08:48;22.05;;;11.77;;
64387;SDS011;50709;52.648;4.764;2023-02-08T10:11:37;19.45;;;11.95;;
64387;SDS011;50709;52.648;4.764;2023-02-08T10:22:28;22.35;;;13.43;;
64387;SDS011;50709;52.648;4.764;2023-02-08T10:35:43;20.73;;;12.13;;
64387;SDS011;50709;52.648;4.764;2023-02-08T10:41:03;34.88;;;19.33;;
64387;SDS011;50709;52.648;4.764;2023-02-08T10:51:46;24.55;;;13.70;;
64387;SDS011;50709;52.648;4.764;2023-02-08T10:54:12;19.08;;;12.88;;
64387;SDS011;50709;52.648;4.764;2023-02-08T10:56:40;19.77;;;12.23;;
64387;SDS011;50709;52.648;4.764;2023-02-08T10:59:20;21.98;;;12.02;;
64387;SDS011;50709;52.648;4.764;2023-02-08T11:01:48;21.90;;;13.65;;
64387;SDS011;50709;52.648;4.764;2023-02-08T11:04:15;19.48;;;12.77;;
64387;SDS011;50709;52.648;4.764;2023-02-08T11:06:42;20.00;;;12.80;;
64387;SDS011;50709;52.648;4.764;2023-02-08T11:09:22;28.90;;;18.77;;
64387;SDS011;50709;52.648;4.764;2023-02-08T11:11:48;22.40;;;14.65;;
64387;SDS011;50709;52.648;4.764;2023-02-08T11:14:17;22.33;;;13.27;;
64387;SDS011;50709;52.648;4.764;2023-02-08T11:16:48;19.15;;;12.73;;
64387;SDS011;50709;52.648;4.764;2023-02-08T11:19:22;20.10;;;13.35;;
64387;SDS011;50709;52.648;4.764;2023-02-08T11:21:52;22.10;;;13.63;;
64387;SDS011;50709;52.648;4.764;2023-02-08T11:24:29;21.77;;;13.10;;
64387;SDS011;50709;52.648;4.764;2023-02-08T11:27:03;21.50;;;13.63;;
64387;SDS011;50709;52.648;4.764;2023-02-08T11:32:38;19.75;;;13.45;;
64387;SDS011;50709;52.648;4.764;2023-02-08T11:35:29;23.30;;;14.05;;
64387;SDS011;50709;52.648;4.764;2023-02-08T11:37:57;21.40;;;14.15;;
64387;SDS011;50709;52.648;4.764;2023-02-08T11:40:36;18.70;;;12.30;;
64387;SDS011;50709;52.648;4.764;2023-02-08T11:43:17;18.70;;;13.23;;
64387;SDS011;50709;52.648;4.764;2023-02-08T11:45:46;19.77;;;13.52;;
64387;SDS011;50709;52.648;4.764;2023-02-08T11:48:48;18.55;;;12.57;;
64387;SDS011;50709;52.648;4.764;2023-02-08T11:51:06;22.10;;;14.52;;
64387;SDS011;50709;52.648;4.764;2023-02-08T11:53:34;24.35;;;14.07;;
64387;SDS011;50709;52.648;4.764;2023-02-08T11:58:32;20.83;;;13.35;;
64387;SDS011;50709;52.648;4.764;2023-02-08T12:03:27;22.60;;;14.52;;
64387;SDS011;50709;52.648;4.764;2023-02-08T12:14:01;22.35;;;13.48;;
64387;SDS011;50709;52.648;4.764;2023-02-08T12:19:28;19.67;;;12.75;;
64387;SDS011;50709;52.648;4.764;2023-02-08T12:22:09;26.52;;;14.43;;
64387;SDS011;50709;52.648;4.764;2023-02-08T12:24:54;21.42;;;13.30;;
64387;SDS011;50709;52.648;4.764;2023-02-08T12:43:53;20.38;;;13.02;;
64387;SDS011;50709;52.648;4.764;2023-02-08T12:52:23;16.27;;;10.20;;
64387;SDS011;50709;52.648;4.764;2023-02-08T12:57:40;17.08;;;9.10;;
64387;SDS011;50709;52.648;4.764;2023-02-08T13:00:15;16.50;;;10.05;;
64387;SDS011;50709;52.648;4.764;2023-02-08T13:05:21;14.85;;;8.73;;
64387;SDS011;50709;52.648;4.764;2023-02-08T13:07:49;16.60;;;8.88;;
64387;SDS011;50709;52.648;4.764;2023-02-08T13:12:54;12.40;;;8.60;;
64387;SDS011;50709;52.648;4.764;2023-02-08T13:15:27;14.80;;;10.15;;
64387;SDS011;50709;52.648;4.764;2023-02-08T13:18:01;16.17;;;8.23;;
64387;SDS011;50709;52.648;4.764;2023-02-08T13:23:25;13.57;;;8.45;;
64387;SDS011;50709;52.648;4.764;2023-02-08T13:25:59;13.68;;;8.55;;
64387;SDS011;50709;52.648;4.764;2023-02-08T13:28:27;13.98;;;8.65;;
64387;SDS011;50709;52.648;4.764;2023-02-08T13:33:49;11.50;;;8.40;;
64387;SDS011;50709;52.648;4.764;2023-02-08T13:36:31;12.93;;;7.53;;
64387;SDS011;50709;52.648;4.764;2023-02-08T13:39:00;13.38;;;8.05;;
64387;SDS011;50709;52.648;4.764;2023-02-08T13:41:29;13.05;;;7.88;;
64387;SDS011;50709;52.648;4.764;2023-02-08T13:46:25;10.55;;;7.75;;
64387;SDS011;50709;52.648;4.764;2023-02-08T13:48:58;11.00;;;7.85;;
64387;SDS011;50709;52.648;4.764;2023-02-08T14:04:37;11.20;;;8.15;;
64387;SDS011;50709;52.648;4.764;2023-02-08T14:07:05;11.73;;;8.27;;
64387;SDS011;50709;52.648;4.764;2023-02-08T14:09:47;13.20;;;7.85;;
64387;SDS011;50709;52.648;4.764;2023-02-08T14:17:41;10.55;;;7.88;;
64387;SDS011;50709;52.648;4.764;2023-02-08T14:20:18;12.80;;;8.30;;
64387;SDS011;50709;52.648;4.764;2023-02-08T14:22:51;11.93;;;8.30;;
64387;SDS011;50709;52.648;4.764;2023-02-08T14:25:20;13.55;;;8.52;;
64387;SDS011;50709;52.648;4.764;2023-02-08T14:27:49;11.30;;;7.25;;
64387;SDS011;50709;52.648;4.764;2023-02-08T14:30:20;13.77;;;7.47;;
64387;SDS011;50709;52.648;4.764;2023-02-08T14:32:50;13.05;;;7.85;;
64387;SDS011;50709;52.648;4.764;2023-02-08T14:35:36;11.95;;;7.97;;
64387;SDS011;50709;52.648;4.764;2023-02-08T14:40:47;12.52;;;8.50;;
64387;SDS011;50709;52.648;4.764;2023-02-08T14:45:42;12.10;;;8.27;;
64387;SDS011;50709;52.648;4.764;2023-02-08T14:56:14;11.38;;;7.35;;
64387;SDS011;50709;52.648;4.764;2023-02-08T14:59:15;12.18;;;8.57;;
64387;SDS011;50709;52.648;4.764;2023-02-08T15:01:51;12.50;;;7.97;;
64387;SDS011;50709;52.648;4.764;2023-02-08T15:04:20;13.40;;;8.75;;
64387;SDS011;50709;52.648;4.764;2023-02-08T15:09:32;15.40;;;7.60;;
64387;SDS011;50709;52.648;4.764;2023-02-08T15:12:24;11.95;;;7.25;;
64387;SDS011;50709;52.648;4.764;2023-02-08T15:14:56;14.20;;;8.23;;
64387;SDS011;50709;52.648;4.764;2023-02-08T15:19:56;12.35;;;7.45;;
64387;SDS011;50709;52.648;4.764;2023-02-08T15:24:48;13.10;;;7.57;;
64387;SDS011;50709;52.648;4.764;2023-02-08T15:27:25;11.35;;;7.03;;
64387;SDS011;50709;52.648;4.764;2023-02-08T15:29:53;11.93;;;7.10;;
64387;SDS011;50709;52.648;4.764;2023-02-08T15:32:20;14.10;;;7.88;;
64387;SDS011;50709;52.648;4.764;2023-02-08T15:34:52;13.73;;;7.68;;
64387;SDS011;50709;52.648;4.764;2023-02-08T15:37:42;12.25;;;7.32;;
64387;SDS011;50709;52.648;4.764;2023-02-08T15:40:20;13.35;;;7.82;;
64387;SDS011;50709;52.648;4.764;2023-02-08T15:42:47;13.30;;;7.57;;
64387;SDS011;50709;52.648;4.764;2023-02-08T15:45:19;12.07;;;7.85;;
64387;SDS011;50709;52.648;4.764;2023-02-08T15:47:50;14.00;;;7.85;;
64387;SDS011;50709;52.648;4.764;2023-02-08T15:50:17;15.38;;;8.85;;
64387;SDS011;50709;52.648;4.764;2023-02-08T15:52:46;14.25;;;7.43;;
64387;SDS011;50709;52.648;4.764;2023-02-08T15:55:16;14.77;;;8.00;;
64387;SDS011;50709;52.648;4.764;2023-02-08T15:57:43;11.20;;;7.20;;
64387;SDS011;50709;52.648;4.764;2023-02-08T16:00:20;12.18;;;7.78;;
64387;SDS011;50709;52.648;4.764;2023-02-08T16:02:55;10.63;;;6.93;;
64387;SDS011;50709;52.648;4.764;2023-02-08T16:05:29;11.48;;;7.28;;
64387;SDS011;50709;52.648;4.764;2023-02-08T16:07:56;13.38;;;7.15;;
64387;SDS011;50709;52.648;4.764;2023-02-08T16:10:33;13.68;;;7.22;;
64387;SDS011;50709;52.648;4.764;2023-02-08T16:13:06;11.88;;;6.95;;
64387;SDS011;50709;52.648;4.764;2023-02-08T16:15:43;13.27;;;6.72;;
64387;SDS011;50709;52.648;4.764;2023-02-08T16:21:03;11.23;;;6.85;;
64387;SDS011;50709;52.648;4.764;2023-02-08T16:23:32;12.05;;;7.82;;
64387;SDS011;50709;52.648;4.764;2023-02-08T16:26:10;11.77;;;7.22;;
64387;SDS011;50709;52.648;4.764;2023-02-08T16:28:43;10.82;;;6.82;;
64387;SDS011;50709;52.648;4.764;2023-02-08T16:33:43;10.57;;;6.43;;
64387;SDS011;50709;52.648;4.764;2023-02-08T16:36:17;11.65;;;7.18;;
64387;SDS011;50709;52.648;4.764;2023-02-08T16:39:10;13.02;;;7.47;;
64387;SDS011;50709;52.648;4.764;2023-02-08T16:41:56;12.05;;;7.57;;
64387;SDS011;50709;52.648;4.764;2023-02-08T16:46:51;13.85;;;7.78;;
64387;SDS011;50709;52.648;4.764;2023-02-08T16:49:16;12.65;;;7.32;;
64387;SDS011;50709;52.648;4.764;2023-02-08T16:51:43;13.82;;;7.97;;
64387;SDS011;50709;52.648;4.764;2023-02-08T16:54:12;11.20;;;7.25;;
64387;SDS011;50709;52.648;4.764;2023-02-08T16:56:40;13.60;;;7.68;;
64387;SDS011;50709;52.648;4.764;2023-02-08T16:59:11;13.15;;;7.55;;
64387;SDS011;50709;52.648;4.764;2023-02-08T17:01:39;12.35;;;7.60;;
64387;SDS011;50709;52.648;4.764;2023-02-08T17:04:08;12.15;;;7.00;;
64387;SDS011;50709;52.648;4.764;2023-02-08T17:06:34;12.00;;;7.18;;
64387;SDS011;50709;52.648;4.764;2023-02-08T17:09:03;14.13;;;8.25;;
64387;SDS011;50709;52.648;4.764;2023-02-08T17:11:30;13.57;;;8.07;;
64387;SDS011;50709;52.648;4.764;2023-02-08T17:13:56;15.45;;;8.32;;
64387;SDS011;50709;52.648;4.764;2023-02-08T17:16:25;12.07;;;8.38;;
64387;SDS011;50709;52.648;4.764;2023-02-08T17:18:52;14.80;;;8.40;;
64387;SDS011;50709;52.648;4.764;2023-02-08T17:21:19;16.92;;;8.95;;
64387;SDS011;50709;52.648;4.764;2023-02-08T17:23:45;14.90;;;8.93;;
64387;SDS011;50709;52.648;4.764;2023-02-08T17:28:46;13.40;;;8.73;;
64387;SDS011;50709;52.648;4.764;2023-02-08T17:31:32;15.20;;;8.95;;
64387;SDS011;50709;52.648;4.764;2023-02-08T17:34:00;14.68;;;8.80;;
64387;SDS011;50709;52.648;4.764;2023-02-08T17:36:29;13.32;;;8.82;;
64387;SDS011;50709;52.648;4.764;2023-02-08T17:38:56;16.98;;;9.05;;